sensor_id;sensor_type;location;lat;lon;timestamp;temperature;humidity
46400;DHT22;32104;50.838;4.388;2022-11-11T00:01:02;11.30;99.90
46400;DHT22;32104;50.838;4.388;2022-11-11T00:03:28;11.30;99.90
46400;DHT22;32104;50.838;4.388;2022-11-11T00:05:58;11.30;99.90
46400;DHT22;32104;50.838;4.388;2022-11-11T00:08:24;11.30;99.90
46400;DHT22;32104;50.838;4.388;2022-11-11T00:10:50;11.20;99.90
46400;DHT22;32104;50.838;4.388;2022-11-11T00:13:15;11.20;99.90
46400;DHT22;32104;50.838;4.388;2022-11-11T00:15:41;11.30;99.90
46400;DHT22;32104;50.838;4.388;2022-11-11T00:18:08;11.40;99.90
46400;DHT22;32104;50.838;4.388;2022-11-11T00:20:52;11.40;99.90
46400;DHT22;32104;50.838;4.388;2022-11-11T00:23:38;11.40;99.90
46400;DHT22;32104;50.838;4.388;2022-11-11T00:26:22;11.20;99.90
46400;DHT22;32104;50.838;4.388;2022-11-11T00:28:52;11.10;99.90
46400;DHT22;32104;50.838;4.388;2022-11-11T00:31:17;11.10;99.90
46400;DHT22;32104;50.838;4.388;2022-11-11T00:33:43;11.10;99.90
46400;DHT22;32104;50.838;4.388;2022-11-11T00:36:11;11.10;99.90
46400;DHT22;32104;50.838;4.388;2022-11-11T00:38:37;11.10;99.90
46400;DHT22;32104;50.838;4.388;2022-11-11T00:41:20;11.20;99.90
46400;DHT22;32104;50.838;4.388;2022-11-11T00:43:49;11.10;99.90
46400;DHT22;32104;50.838;4.388;2022-11-11T00:46:19;11.20;99.90
46400;DHT22;32104;50.838;4.388;2022-11-11T00:49:04;11.20;99.90
46400;DHT22;32104;50.838;4.388;2022-11-11T00:51:48;11.10;99.90
46400;DHT22;32104;50.838;4.388;2022-11-11T00:54:15;11.10;99.90
46400;DHT22;32104;50.838;4.388;2022-11-11T00:56:40;11.20;99.90
46400;DHT22;32104;50.838;4.388;2022-11-11T00:59:07;11.20;99.90
46400;DHT22;32104;50.838;4.388;2022-11-11T01:01:33;11.30;99.90
46400;DHT22;32104;50.838;4.388;2022-11-11T01:03:59;11.30;99.90
46400;DHT22;32104;50.838;4.388;2022-11-11T01:06:25;11.30;99.90
46400;DHT22;32104;50.838;4.388;2022-11-11T01:08:50;11.20;99.90
46400;DHT22;32104;50.838;4.388;2022-11-11T01:11:17;11.30;99.90
46400;DHT22;32104;50.838;4.388;2022-11-11T01:13:43;11.40;99.90
46400;DHT22;32104;50.838;4.388;2022-11-11T01:16:11;11.30;99.90
46400;DHT22;32104;50.838;4.388;2022-11-11T01:18:37;11.30;99.90
46400;DHT22;32104;50.838;4.388;2022-11-11T01:21:13;11.20;99.90
46400;DHT22;32104;50.838;4.388;2022-11-11T01:23:39;11.20;99.90
46400;DHT22;32104;50.838;4.388;2022-11-11T01:26:06;11.20;99.90
46400;DHT22;32104;50.838;4.388;2022-11-11T01:28:33;11.10;99.90
46400;DHT22;32104;50.838;4.388;2022-11-11T01:31:00;11.20;99.90
46400;DHT22;32104;50.838;4.388;2022-11-11T01:33:26;11.30;99.90
46400;DHT22;32104;50.838;4.388;2022-11-11T01:35:51;11.30;99.90
46400;DHT22;32104;50.838;4.388;2022-11-11T01:38:17;11.20;99.90
46400;DHT22;32104;50.838;4.388;2022-11-11T01:40:47;11.20;99.90
46400;DHT22;32104;50.838;4.388;2022-11-11T01:43:17;11.20;99.90
46400;DHT22;32104;50.838;4.388;2022-11-11T01:51:35;11.20;99.90
46400;DHT22;32104;50.838;4.388;2022-11-11T01:54:03;11.00;99.90
46400;DHT22;32104;50.838;4.388;2022-11-11T01:56:31;11.00;99.90
46400;DHT22;32104;50.838;4.388;2022-11-11T01:59:00;10.90;99.90
46400;DHT22;32104;50.838;4.388;2022-11-11T02:01:26;11.10;99.90
46400;DHT22;32104;50.838;4.388;2022-11-11T02:06:35;11.10;99.90
46400;DHT22;32104;50.838;4.388;2022-11-11T02:09:08;11.00;99.90
46400;DHT22;32104;50.838;4.388;2022-11-11T02:11:36;10.80;99.90
46400;DHT22;32104;50.838;4.388;2022-11-11T02:14:21;10.90;99.90
46400;DHT22;32104;50.838;4.388;2022-11-11T02:17:12;11.00;99.90
46400;DHT22;32104;50.838;4.388;2022-11-11T02:19:49;11.10;99.90
46400;DHT22;32104;50.838;4.388;2022-11-11T02:25:03;11.10;99.90
46400;DHT22;32104;50.838;4.388;2022-11-11T02:27:30;11.20;99.90
46400;DHT22;32104;50.838;4.388;2022-11-11T02:29:57;11.10;99.90
46400;DHT22;32104;50.838;4.388;2022-11-11T02:32:25;11.10;99.90
46400;DHT22;32104;50.838;4.388;2022-11-11T02:34:50;11.20;99.90
46400;DHT22;32104;50.838;4.388;2022-11-11T02:37:23;11.10;99.90
46400;DHT22;32104;50.838;4.388;2022-11-11T02:39:51;11.10;99.90
46400;DHT22;32104;50.838;4.388;2022-11-11T02:42:19;11.20;99.90
46400;DHT22;32104;50.838;4.388;2022-11-11T02:44:48;11.20;99.90
46400;DHT22;32104;50.838;4.388;2022-11-11T02:47:14;11.20;99.90
46400;DHT22;32104;50.838;4.388;2022-11-11T02:49:39;11.20;99.90
46400;DHT22;32104;50.838;4.388;2022-11-11T02:52:05;11.20;99.90
46400;DHT22;32104;50.838;4.388;2022-11-11T02:54:30;11.40;99.90
46400;DHT22;32104;50.838;4.388;2022-11-11T02:56:56;11.30;99.90
46400;DHT22;32104;50.838;4.388;2022-11-11T02:59:35;11.30;99.90
46400;DHT22;32104;50.838;4.388;2022-11-11T03:02:00;11.10;99.90
46400;DHT22;32104;50.838;4.388;2022-11-11T03:04:26;11.10;99.90
46400;DHT22;32104;50.838;4.388;2022-11-11T03:06:51;11.10;99.90
46400;DHT22;32104;50.838;4.388;2022-11-11T03:09:17;11.20;99.90
46400;DHT22;32104;50.838;4.388;2022-11-11T03:11:46;11.20;99.90
46400;DHT22;32104;50.838;4.388;2022-11-11T03:14:11;11.20;99.90
46400;DHT22;32104;50.838;4.388;2022-11-11T03:16:40;11.20;99.90
46400;DHT22;32104;50.838;4.388;2022-11-11T03:19:24;11.20;99.90
46400;DHT22;32104;50.838;4.388;2022-11-11T03:21:49;11.30;99.90
46400;DHT22;32104;50.838;4.388;2022-11-11T03:24:16;11.30;99.90
46400;DHT22;32104;50.838;4.388;2022-11-11T03:26:42;11.20;99.90
46400;DHT22;32104;50.838;4.388;2022-11-11T03:29:08;11.20;99.90
46400;DHT22;32104;50.838;4.388;2022-11-11T03:31:33;11.40;99.90
46400;DHT22;32104;50.838;4.388;2022-11-11T03:33:59;11.30;99.90
46400;DHT22;32104;50.838;4.388;2022-11-11T03:36:43;11.30;99.90
46400;DHT22;32104;50.838;4.388;2022-11-11T03:39:27;11.30;99.90
46400;DHT22;32104;50.838;4.388;2022-11-11T03:41:53;11.30;99.90
46400;DHT22;32104;50.838;4.388;2022-11-11T03:44:19;11.20;99.90
46400;DHT22;32104;50.838;4.388;2022-11-11T03:46:45;11.20;99.90
46400;DHT22;32104;50.838;4.388;2022-11-11T03:49:12;11.10;99.90
46400;DHT22;32104;50.838;4.388;2022-11-11T03:51:43;11.20;99.90
46400;DHT22;32104;50.838;4.388;2022-11-11T03:54:26;11.20;99.90
46400;DHT22;32104;50.838;4.388;2022-11-11T03:56:52;11.20;99.90
46400;DHT22;32104;50.838;4.388;2022-11-11T03:59:38;11.30;99.90
46400;DHT22;32104;50.838;4.388;2022-11-11T04:02:03;11.40;99.90
46400;DHT22;32104;50.838;4.388;2022-11-11T04:04:48;11.20;99.90
46400;DHT22;32104;50.838;4.388;2022-11-11T04:07:32;11.10;99.90
46400;DHT22;32104;50.838;4.388;2022-11-11T04:10:24;11.30;99.90
46400;DHT22;32104;50.838;4.388;2022-11-11T04:12:50;11.20;99.90
46400;DHT22;32104;50.838;4.388;2022-11-11T04:15:35;11.10;99.90
46400;DHT22;32104;50.838;4.388;2022-11-11T04:18:20;11.20;99.90
46400;DHT22;32104;50.838;4.388;2022-11-11T04:21:08;11.10;99.90
46400;DHT22;32104;50.838;4.388;2022-11-11T04:23:52;11.10;99.90
46400;DHT22;32104;50.838;4.388;2022-11-11T04:26:18;11.20;99.90
46400;DHT22;32104;50.838;4.388;2022-11-11T04:28:44;11.00;99.90
46400;DHT22;32104;50.838;4.388;2022-11-11T04:31:28;10.80;99.90
46400;DHT22;32104;50.838;4.388;2022-11-11T04:33:54;10.80;99.90
46400;DHT22;32104;50.838;4.388;2022-11-11T04:36:20;10.80;99.90
46400;DHT22;32104;50.838;4.388;2022-11-11T04:38:45;10.90;99.90
46400;DHT22;32104;50.838;4.388;2022-11-11T04:41:30;10.70;99.90
46400;DHT22;32104;50.838;4.388;2022-11-11T04:43:55;10.70;99.90
46400;DHT22;32104;50.838;4.388;2022-11-11T04:46:40;10.70;99.90
46400;DHT22;32104;50.838;4.388;2022-11-11T04:49:05;10.70;99.90
46400;DHT22;32104;50.838;4.388;2022-11-11T04:51:31;10.50;99.90
46400;DHT22;32104;50.838;4.388;2022-11-11T04:54:16;10.50;99.90
46400;DHT22;32104;50.838;4.388;2022-11-11T04:56:43;10.60;99.90
46400;DHT22;32104;50.838;4.388;2022-11-11T04:59:12;10.40;99.90
46400;DHT22;32104;50.838;4.388;2022-11-11T05:01:40;10.40;99.90
46400;DHT22;32104;50.838;4.388;2022-11-11T05:04:24;10.50;99.90
46400;DHT22;32104;50.838;4.388;2022-11-11T05:06:51;10.40;99.90
46400;DHT22;32104;50.838;4.388;2022-11-11T05:09:36;10.40;99.90
46400;DHT22;32104;50.838;4.388;2022-11-11T05:12:01;10.30;99.90
46400;DHT22;32104;50.838;4.388;2022-11-11T05:14:27;10.30;99.90
46400;DHT22;32104;50.838;4.388;2022-11-11T05:17:13;10.20;99.90
46400;DHT22;32104;50.838;4.388;2022-11-11T05:19:57;10.20;99.90
46400;DHT22;32104;50.838;4.388;2022-11-11T05:22:42;10.20;99.90
46400;DHT22;32104;50.838;4.388;2022-11-11T05:25:09;10.10;99.90
46400;DHT22;32104;50.838;4.388;2022-11-11T05:30:43;10.10;99.90
46400;DHT22;32104;50.838;4.388;2022-11-11T05:33:09;10.00;99.90
46400;DHT22;32104;50.838;4.388;2022-11-11T05:35:35;10.00;99.90
46400;DHT22;32104;50.838;4.388;2022-11-11T05:38:01;9.90;99.90
46400;DHT22;32104;50.838;4.388;2022-11-11T05:40:57;9.80;99.90
46400;DHT22;32104;50.838;4.388;2022-11-11T05:43:24;9.90;99.90
46400;DHT22;32104;50.838;4.388;2022-11-11T05:46:11;9.90;99.90
46400;DHT22;32104;50.838;4.388;2022-11-11T05:49:02;10.00;99.90
46400;DHT22;32104;50.838;4.388;2022-11-11T05:51:42;10.10;99.90
46400;DHT22;32104;50.838;4.388;2022-11-11T05:54:09;10.00;99.90
46400;DHT22;32104;50.838;4.388;2022-11-11T05:56:36;10.00;99.90
46400;DHT22;32104;50.838;4.388;2022-11-11T05:59:04;10.00;99.90
46400;DHT22;32104;50.838;4.388;2022-11-11T06:01:34;10.00;99.90
46400;DHT22;32104;50.838;4.388;2022-11-11T06:03:59;10.10;99.90
46400;DHT22;32104;50.838;4.388;2022-11-11T06:06:25;10.00;99.90
46400;DHT22;32104;50.838;4.388;2022-11-11T06:08:52;10.10;99.90
46400;DHT22;32104;50.838;4.388;2022-11-11T06:11:17;10.10;99.90
46400;DHT22;32104;50.838;4.388;2022-11-11T06:13:43;10.10;99.90
46400;DHT22;32104;50.838;4.388;2022-11-11T06:16:08;10.10;99.90
46400;DHT22;32104;50.838;4.388;2022-11-11T06:18:34;10.00;99.90
46400;DHT22;32104;50.838;4.388;2022-11-11T06:21:00;10.00;99.90
46400;DHT22;32104;50.838;4.388;2022-11-11T06:23:27;9.90;99.90
46400;DHT22;32104;50.838;4.388;2022-11-11T06:25:53;10.00;99.90
46400;DHT22;32104;50.838;4.388;2022-11-11T06:28:53;10.00;99.90
46400;DHT22;32104;50.838;4.388;2022-11-11T06:31:20;9.80;99.90
46400;DHT22;32104;50.838;4.388;2022-11-11T06:33:46;9.90;99.90
46400;DHT22;32104;50.838;4.388;2022-11-11T06:36:13;9.80;99.90
46400;DHT22;32104;50.838;4.388;2022-11-11T06:38:39;9.80;99.90
46400;DHT22;32104;50.838;4.388;2022-11-11T06:41:06;9.80;99.90
46400;DHT22;32104;50.838;4.388;2022-11-11T06:43:38;9.80;99.90
46400;DHT22;32104;50.838;4.388;2022-11-11T06:46:04;9.60;99.90
46400;DHT22;32104;50.838;4.388;2022-11-11T06:48:30;9.60;99.90
46400;DHT22;32104;50.838;4.388;2022-11-11T06:51:03;9.60;99.90
46400;DHT22;32104;50.838;4.388;2022-11-11T06:53:29;9.80;99.90
46400;DHT22;32104;50.838;4.388;2022-11-11T06:55:55;9.80;99.90
46400;DHT22;32104;50.838;4.388;2022-11-11T06:58:22;9.70;99.90
46400;DHT22;32104;50.838;4.388;2022-11-11T07:00:48;9.70;99.90
46400;DHT22;32104;50.838;4.388;2022-11-11T07:03:16;9.60;99.90
46400;DHT22;32104;50.838;4.388;2022-11-11T07:05:42;9.60;99.90
46400;DHT22;32104;50.838;4.388;2022-11-11T07:08:10;9.70;99.90
46400;DHT22;32104;50.838;4.388;2022-11-11T07:10:36;9.90;99.90
46400;DHT22;32104;50.838;4.388;2022-11-11T07:15:39;9.80;99.90
46400;DHT22;32104;50.838;4.388;2022-11-11T07:18:06;9.90;99.90
46400;DHT22;32104;50.838;4.388;2022-11-11T07:20:32;10.10;99.90
46400;DHT22;32104;50.838;4.388;2022-11-11T07:22:58;10.20;99.90
46400;DHT22;32104;50.838;4.388;2022-11-11T07:25:23;10.10;99.90
46400;DHT22;32104;50.838;4.388;2022-11-11T07:27:50;10.10;99.90
46400;DHT22;32104;50.838;4.388;2022-11-11T07:30:15;10.00;99.90
46400;DHT22;32104;50.838;4.388;2022-11-11T07:32:45;10.20;99.90
46400;DHT22;32104;50.838;4.388;2022-11-11T07:35:11;10.10;99.90
46400;DHT22;32104;50.838;4.388;2022-11-11T07:37:38;10.30;99.90
46400;DHT22;32104;50.838;4.388;2022-11-11T07:40:04;10.10;99.90
46400;DHT22;32104;50.838;4.388;2022-11-11T07:42:30;10.10;99.90
46400;DHT22;32104;50.838;4.388;2022-11-11T07:44:56;10.00;99.90
46400;DHT22;32104;50.838;4.388;2022-11-11T07:47:21;10.10;99.90
46400;DHT22;32104;50.838;4.388;2022-11-11T07:49:48;10.20;99.90
46400;DHT22;32104;50.838;4.388;2022-11-11T07:52:17;10.30;99.90
46400;DHT22;32104;50.838;4.388;2022-11-11T07:54:44;10.30;99.90
46400;DHT22;32104;50.838;4.388;2022-11-11T07:57:10;10.30;99.90
46400;DHT22;32104;50.838;4.388;2022-11-11T07:59:36;10.30;99.90
46400;DHT22;32104;50.838;4.388;2022-11-11T08:02:02;10.20;99.90
46400;DHT22;32104;50.838;4.388;2022-11-11T08:04:27;10.20;99.90
46400;DHT22;32104;50.838;4.388;2022-11-11T08:06:54;10.30;99.90
46400;DHT22;32104;50.838;4.388;2022-11-11T08:09:21;10.30;99.90
46400;DHT22;32104;50.838;4.388;2022-11-11T08:11:46;10.30;99.90
46400;DHT22;32104;50.838;4.388;2022-11-11T08:14:31;10.30;99.90
46400;DHT22;32104;50.838;4.388;2022-11-11T08:16:56;10.30;99.90
46400;DHT22;32104;50.838;4.388;2022-11-11T08:19:22;10.30;99.90
46400;DHT22;32104;50.838;4.388;2022-11-11T08:21:48;10.30;99.90
46400;DHT22;32104;50.838;4.388;2022-11-11T08:24:14;10.30;99.90
46400;DHT22;32104;50.838;4.388;2022-11-11T08:26:40;10.40;99.90
46400;DHT22;32104;50.838;4.388;2022-11-11T08:29:06;10.40;99.90
46400;DHT22;32104;50.838;4.388;2022-11-11T08:31:32;10.20;99.90
46400;DHT22;32104;50.838;4.388;2022-11-11T08:34:00;10.30;99.90
46400;DHT22;32104;50.838;4.388;2022-11-11T08:36:26;10.30;99.90
46400;DHT22;32104;50.838;4.388;2022-11-11T08:38:52;10.30;99.90
46400;DHT22;32104;50.838;4.388;2022-11-11T08:41:19;10.40;99.90
46400;DHT22;32104;50.838;4.388;2022-11-11T08:43:46;10.30;99.90
46400;DHT22;32104;50.838;4.388;2022-11-11T08:46:15;10.30;99.90
46400;DHT22;32104;50.838;4.388;2022-11-11T08:48:40;10.30;99.90
46400;DHT22;32104;50.838;4.388;2022-11-11T08:51:06;10.40;99.90
46400;DHT22;32104;50.838;4.388;2022-11-11T08:53:32;10.40;99.90
46400;DHT22;32104;50.838;4.388;2022-11-11T08:55:59;10.40;99.90
46400;DHT22;32104;50.838;4.388;2022-11-11T08:58:25;10.50;99.90
46400;DHT22;32104;50.838;4.388;2022-11-11T09:00:50;10.40;99.90
46400;DHT22;32104;50.838;4.388;2022-11-11T09:03:16;10.50;99.90
46400;DHT22;32104;50.838;4.388;2022-11-11T09:05:42;10.50;99.90
46400;DHT22;32104;50.838;4.388;2022-11-11T09:08:08;10.50;99.90
46400;DHT22;32104;50.838;4.388;2022-11-11T09:10:34;10.40;99.90
46400;DHT22;32104;50.838;4.388;2022-11-11T09:13:01;10.50;99.90
46400;DHT22;32104;50.838;4.388;2022-11-11T09:15:27;10.80;99.90
46400;DHT22;32104;50.838;4.388;2022-11-11T09:17:53;10.90;99.90
46400;DHT22;32104;50.838;4.388;2022-11-11T09:20:20;10.90;99.90
46400;DHT22;32104;50.838;4.388;2022-11-11T09:22:46;10.90;99.90
46400;DHT22;32104;50.838;4.388;2022-11-11T09:25:12;11.00;99.90
46400;DHT22;32104;50.838;4.388;2022-11-11T09:27:38;11.10;99.90
46400;DHT22;32104;50.838;4.388;2022-11-11T09:30:04;11.30;99.90
46400;DHT22;32104;50.838;4.388;2022-11-11T09:32:30;11.30;99.90
46400;DHT22;32104;50.838;4.388;2022-11-11T09:34:56;11.40;99.90
46400;DHT22;32104;50.838;4.388;2022-11-11T09:37:22;11.50;99.90
46400;DHT22;32104;50.838;4.388;2022-11-11T09:39:48;11.70;99.90
46400;DHT22;32104;50.838;4.388;2022-11-11T09:47:54;11.80;99.90
46400;DHT22;32104;50.838;4.388;2022-11-11T09:50:24;11.90;99.90
46400;DHT22;32104;50.838;4.388;2022-11-11T09:57:55;12.20;99.90
46400;DHT22;32104;50.838;4.388;2022-11-11T10:00:24;12.20;99.90
46400;DHT22;32104;50.838;4.388;2022-11-11T10:05:39;12.50;99.90
46400;DHT22;32104;50.838;4.388;2022-11-11T10:13:11;12.80;99.90
46400;DHT22;32104;50.838;4.388;2022-11-11T10:15:40;12.90;99.90
46400;DHT22;32104;50.838;4.388;2022-11-11T10:18:12;13.10;99.90
46400;DHT22;32104;50.838;4.388;2022-11-11T10:20:42;12.90;99.90
46400;DHT22;32104;50.838;4.388;2022-11-11T10:23:14;13.10;99.90
46400;DHT22;32104;50.838;4.388;2022-11-11T10:25:47;13.20;99.90
46400;DHT22;32104;50.838;4.388;2022-11-11T10:28:17;13.20;99.90
46400;DHT22;32104;50.838;4.388;2022-11-11T10:30:43;13.20;99.90
46400;DHT22;32104;50.838;4.388;2022-11-11T10:33:15;13.30;99.90
46400;DHT22;32104;50.838;4.388;2022-11-11T10:35:43;13.40;99.90
46400;DHT22;32104;50.838;4.388;2022-11-11T10:40:56;13.60;99.90
46400;DHT22;32104;50.838;4.388;2022-11-11T10:43:25;13.60;99.90
46400;DHT22;32104;50.838;4.388;2022-11-11T10:46:06;13.50;99.90
46400;DHT22;32104;50.838;4.388;2022-11-11T10:48:44;13.60;99.90
46400;DHT22;32104;50.838;4.388;2022-11-11T10:51:11;13.60;99.90
46400;DHT22;32104;50.838;4.388;2022-11-11T10:53:40;13.60;99.90
46400;DHT22;32104;50.838;4.388;2022-11-11T10:58:46;13.80;99.90
46400;DHT22;32104;50.838;4.388;2022-11-11T11:01:15;13.80;99.90
46400;DHT22;32104;50.838;4.388;2022-11-11T11:03:42;13.80;99.90
46400;DHT22;32104;50.838;4.388;2022-11-11T11:06:11;13.90;99.90
46400;DHT22;32104;50.838;4.388;2022-11-11T11:08:43;14.00;99.90
46400;DHT22;32104;50.838;4.388;2022-11-11T11:11:14;13.90;99.90
46400;DHT22;32104;50.838;4.388;2022-11-11T11:16:16;14.20;99.90
46400;DHT22;32104;50.838;4.388;2022-11-11T11:18:42;14.40;99.90
46400;DHT22;32104;50.838;4.388;2022-11-11T11:21:09;14.60;99.90
46400;DHT22;32104;50.838;4.388;2022-11-11T11:23:39;14.70;99.90
46400;DHT22;32104;50.838;4.388;2022-11-11T11:26:04;14.80;99.90
46400;DHT22;32104;50.838;4.388;2022-11-11T11:28:30;14.80;99.90
46400;DHT22;32104;50.838;4.388;2022-11-11T11:30:57;14.80;99.90
46400;DHT22;32104;50.838;4.388;2022-11-11T11:33:23;14.90;99.90
46400;DHT22;32104;50.838;4.388;2022-11-11T11:35:48;15.20;99.90
46400;DHT22;32104;50.838;4.388;2022-11-11T11:38:14;15.40;99.90
46400;DHT22;32104;50.838;4.388;2022-11-11T11:40:56;15.60;99.90
46400;DHT22;32104;50.838;4.388;2022-11-11T11:43:35;15.70;99.90
46400;DHT22;32104;50.838;4.388;2022-11-11T11:46:02;15.90;99.90
46400;DHT22;32104;50.838;4.388;2022-11-11T11:48:32;16.10;99.90
46400;DHT22;32104;50.838;4.388;2022-11-11T11:51:08;16.10;99.90
46400;DHT22;32104;50.838;4.388;2022-11-11T11:56:38;16.30;99.90
46400;DHT22;32104;50.838;4.388;2022-11-11T11:59:10;16.30;99.90
46400;DHT22;32104;50.838;4.388;2022-11-11T12:04:07;16.30;99.90
46400;DHT22;32104;50.838;4.388;2022-11-11T12:06:42;16.20;99.90
46400;DHT22;32104;50.838;4.388;2022-11-11T12:09:23;16.30;99.90
46400;DHT22;32104;50.838;4.388;2022-11-11T12:12:03;16.40;99.90
46400;DHT22;32104;50.838;4.388;2022-11-11T12:17:01;16.70;99.90
46400;DHT22;32104;50.838;4.388;2022-11-11T12:29:46;16.40;99.90
46400;DHT22;32104;50.838;4.388;2022-11-11T12:32:18;16.40;99.90
46400;DHT22;32104;50.838;4.388;2022-11-11T12:40:07;16.20;99.90
46400;DHT22;32104;50.838;4.388;2022-11-11T12:47:57;16.20;99.90
46400;DHT22;32104;50.838;4.388;2022-11-11T12:50:45;16.20;99.90
46400;DHT22;32104;50.838;4.388;2022-11-11T12:53:30;16.10;99.90
46400;DHT22;32104;50.838;4.388;2022-11-11T12:56:13;16.10;99.90
46400;DHT22;32104;50.838;4.388;2022-11-11T12:58:49;16.00;99.90
46400;DHT22;32104;50.838;4.388;2022-11-11T13:14:06;16.20;99.90
46400;DHT22;32104;50.838;4.388;2022-11-11T13:16:37;16.20;99.90
46400;DHT22;32104;50.838;4.388;2022-11-11T13:19:04;16.10;99.90
46400;DHT22;32104;50.838;4.388;2022-11-11T13:21:35;15.90;99.90
46400;DHT22;32104;50.838;4.388;2022-11-11T13:24:02;15.80;99.90
46400;DHT22;32104;50.838;4.388;2022-11-11T13:26:36;15.90;99.90
46400;DHT22;32104;50.838;4.388;2022-11-11T13:31:41;16.00;99.90
46400;DHT22;32104;50.838;4.388;2022-11-11T13:34:11;15.90;99.90
46400;DHT22;32104;50.838;4.388;2022-11-11T13:36:43;15.90;99.90
46400;DHT22;32104;50.838;4.388;2022-11-11T13:39:20;15.90;99.90
46400;DHT22;32104;50.838;4.388;2022-11-11T13:41:48;15.90;99.90
46400;DHT22;32104;50.838;4.388;2022-11-11T13:44:19;15.80;99.90
46400;DHT22;32104;50.838;4.388;2022-11-11T13:46:46;15.70;99.90
46400;DHT22;32104;50.838;4.388;2022-11-11T13:52:03;15.60;99.90
46400;DHT22;32104;50.838;4.388;2022-11-11T13:54:33;15.60;99.90
46400;DHT22;32104;50.838;4.388;2022-11-11T13:57:04;15.60;99.90
46400;DHT22;32104;50.838;4.388;2022-11-11T13:59:32;15.60;99.90
46400;DHT22;32104;50.838;4.388;2022-11-11T14:12:40;15.50;99.90
46400;DHT22;32104;50.838;4.388;2022-11-11T14:17:52;15.60;99.90
46400;DHT22;32104;50.838;4.388;2022-11-11T14:20:34;15.50;99.90
46400;DHT22;32104;50.838;4.388;2022-11-11T14:26:27;15.20;99.90
46400;DHT22;32104;50.838;4.388;2022-11-11T14:28:47;15.10;99.90
46400;DHT22;32104;50.838;4.388;2022-11-11T14:36:36;15.20;99.90
46400;DHT22;32104;50.838;4.388;2022-11-11T14:44:55;15.20;99.90
46400;DHT22;32104;50.838;4.388;2022-11-11T14:49:46;15.30;99.90
46400;DHT22;32104;50.838;4.388;2022-11-11T14:52:39;15.20;99.90
46400;DHT22;32104;50.838;4.388;2022-11-11T14:55:19;15.00;99.90
46400;DHT22;32104;50.838;4.388;2022-11-11T14:58:31;14.80;99.90
46400;DHT22;32104;50.838;4.388;2022-11-11T15:03:26;14.80;99.90
46400;DHT22;32104;50.838;4.388;2022-11-11T15:05:55;14.80;99.90
46400;DHT22;32104;50.838;4.388;2022-11-11T15:08:38;14.90;99.90
46400;DHT22;32104;50.838;4.388;2022-11-11T15:18:43;14.80;99.90
46400;DHT22;32104;50.838;4.388;2022-11-11T15:26:32;14.70;99.90
46400;DHT22;32104;50.838;4.388;2022-11-11T15:37:03;14.30;99.90
46400;DHT22;32104;50.838;4.388;2022-11-11T15:39:36;14.40;99.90
46400;DHT22;32104;50.838;4.388;2022-11-11T15:42:03;14.30;99.90
46400;DHT22;32104;50.838;4.388;2022-11-11T15:44:30;14.20;99.90
46400;DHT22;32104;50.838;4.388;2022-11-11T15:46:57;14.10;99.90
46400;DHT22;32104;50.838;4.388;2022-11-11T15:52:01;13.90;99.90
46400;DHT22;32104;50.838;4.388;2022-11-11T15:54:27;14.10;99.90
46400;DHT22;32104;50.838;4.388;2022-11-11T15:56:52;14.00;99.90
46400;DHT22;32104;50.838;4.388;2022-11-11T15:59:23;14.00;99.90
46400;DHT22;32104;50.838;4.388;2022-11-11T16:01:49;13.90;99.90
46400;DHT22;32104;50.838;4.388;2022-11-11T16:04:17;13.70;99.90
46400;DHT22;32104;50.838;4.388;2022-11-11T16:06:43;13.60;99.90
46400;DHT22;32104;50.838;4.388;2022-11-11T16:09:10;13.70;99.90
46400;DHT22;32104;50.838;4.388;2022-11-11T16:11:38;13.90;99.90
46400;DHT22;32104;50.838;4.388;2022-11-11T16:14:04;13.80;99.90
46400;DHT22;32104;50.838;4.388;2022-11-11T16:16:32;13.70;99.90
46400;DHT22;32104;50.838;4.388;2022-11-11T16:23:53;13.60;99.90
46400;DHT22;32104;50.838;4.388;2022-11-11T16:26:20;13.50;99.90
46400;DHT22;32104;50.838;4.388;2022-11-11T16:28:47;13.40;99.90
46400;DHT22;32104;50.838;4.388;2022-11-11T16:33:58;13.20;99.90
46400;DHT22;32104;50.838;4.388;2022-11-11T16:36:24;13.10;99.90
46400;DHT22;32104;50.838;4.388;2022-11-11T16:38:52;13.10;99.90
46400;DHT22;32104;50.838;4.388;2022-11-11T16:41:28;13.10;99.90
46400;DHT22;32104;50.838;4.388;2022-11-11T16:43:56;13.10;99.90
46400;DHT22;32104;50.838;4.388;2022-11-11T16:49:01;13.00;99.90
46400;DHT22;32104;50.838;4.388;2022-11-11T16:51:39;12.90;99.90
46400;DHT22;32104;50.838;4.388;2022-11-11T16:54:10;12.90;99.90
46400;DHT22;32104;50.838;4.388;2022-11-11T16:56:37;12.80;99.90
46400;DHT22;32104;50.838;4.388;2022-11-11T16:59:08;12.80;99.90
46400;DHT22;32104;50.838;4.388;2022-11-11T17:01:41;12.70;99.90
46400;DHT22;32104;50.838;4.388;2022-11-11T17:04:07;12.80;99.90
46400;DHT22;32104;50.838;4.388;2022-11-11T17:11:57;12.80;99.90
46400;DHT22;32104;50.838;4.388;2022-11-11T17:14:26;12.70;99.90
46400;DHT22;32104;50.838;4.388;2022-11-11T17:16:52;12.60;99.90
46400;DHT22;32104;50.838;4.388;2022-11-11T17:19:18;12.70;99.90
46400;DHT22;32104;50.838;4.388;2022-11-11T17:21:47;12.80;99.90
46400;DHT22;32104;50.838;4.388;2022-11-11T17:24:13;12.90;99.90
46400;DHT22;32104;50.838;4.388;2022-11-11T17:26:39;12.80;99.90
46400;DHT22;32104;50.838;4.388;2022-11-11T17:29:07;12.90;99.90
46400;DHT22;32104;50.838;4.388;2022-11-11T17:31:35;13.00;99.90
46400;DHT22;32104;50.838;4.388;2022-11-11T17:34:08;13.00;99.90
46400;DHT22;32104;50.838;4.388;2022-11-11T17:36:34;12.90;99.90
46400;DHT22;32104;50.838;4.388;2022-11-11T17:39:00;12.80;99.90
46400;DHT22;32104;50.838;4.388;2022-11-11T17:41:26;12.80;99.90
46400;DHT22;32104;50.838;4.388;2022-11-11T17:43:52;12.80;99.90
46400;DHT22;32104;50.838;4.388;2022-11-11T17:46:18;12.90;99.90
46400;DHT22;32104;50.838;4.388;2022-11-11T17:48:44;12.90;99.90
46400;DHT22;32104;50.838;4.388;2022-11-11T17:51:09;13.00;99.90
46400;DHT22;32104;50.838;4.388;2022-11-11T17:53:35;12.90;99.90
46400;DHT22;32104;50.838;4.388;2022-11-11T17:56:04;13.00;99.90
46400;DHT22;32104;50.838;4.388;2022-11-11T17:58:34;12.90;99.90
46400;DHT22;32104;50.838;4.388;2022-11-11T18:01:17;13.00;99.90
46400;DHT22;32104;50.838;4.388;2022-11-11T18:03:43;12.90;99.90
46400;DHT22;32104;50.838;4.388;2022-11-11T18:06:09;12.90;99.90
46400;DHT22;32104;50.838;4.388;2022-11-11T18:08:37;12.80;99.90
46400;DHT22;32104;50.838;4.388;2022-11-11T18:11:03;12.80;99.90
46400;DHT22;32104;50.838;4.388;2022-11-11T18:13:48;12.80;99.90
46400;DHT22;32104;50.838;4.388;2022-11-11T18:16:14;12.70;99.90
46400;DHT22;32104;50.838;4.388;2022-11-11T18:18:40;12.80;99.90
46400;DHT22;32104;50.838;4.388;2022-11-11T18:21:06;13.00;99.90
46400;DHT22;32104;50.838;4.388;2022-11-11T18:23:33;12.90;99.90
46400;DHT22;32104;50.838;4.388;2022-11-11T18:25:58;12.80;99.90
46400;DHT22;32104;50.838;4.388;2022-11-11T18:28:28;12.90;99.90
46400;DHT22;32104;50.838;4.388;2022-11-11T18:30:59;12.90;99.90